Integrity — WDF4881 — position and weather

sailwx.info

Track history (hours):
 
Tides and Currents Weather Stations Pressure Air Temp Water Temp Dewpoint Dewpoint Depression Visibility Wind Speed Wind Dir Waves Ship Positions

Integrity

Owner: Canal Barge Company, Inc., Belle Chasse, LA. More information available from US FCC via Universal Licensing System and Coast Guard Vessel Documentation Center.

Last reported at 2017-Apr-20 18:16 UTC. Time now 2017-Apr-23 05:36 UTC.
Position N 29°44' W 095°03'.

Length 19 m; draft 2.8 m.

Type: Towing. MMSI: 367456830.

Date/timePositionNaut miles runAvg speedWind from/ knotsBaromVisibWave heightAir tempDewpointWater temp
2017-Apr-20 18:16N 29°44' W 095°03'0 0.1
2017-Apr-20 17:59N 29°44' W 095°03'0 0.0
2017-Apr-20 17:28N 29°44' W 095°03'0 0.0
2017-Apr-20 16:58N 29°44' W 095°03'0 0.4
2017-Apr-20 16:31N 29°44' W 095°03'0 0.0
2017-Apr-20 16:01N 29°44' W 095°03'0 0.0
2017-Apr-20 15:29N 29°44' W 095°03'0 0.0
2017-Apr-20 14:40N 29°44' W 095°03'0 0.0
2017-Apr-20 14:28N 29°44' W 095°03'1 0.3
2017-Apr-20 10:56N 29°44' W 095°02'2 4.7
2017-Apr-20 10:30N 29°42' W 095°01'74 1.5
2017-Apr-18 07:26N 30°04' W 093°39'3 4.9
2017-Apr-18 06:51N 30°04' W 093°35'2 4.6
2017-Apr-18 06:29N 30°04' W 093°34'9 4.7
2017-Apr-18 04:29N 30°04' W 093°23'1 3.1
2017-Apr-18 04:00N 30°04' W 093°21'2 3.6
2017-Apr-18 03:31N 30°05' W 093°20'2 4.1
2017-Apr-18 03:01N 30°07' W 093°20'1 1.9
2017-Apr-18 02:31N 30°08' W 093°20'0 0.8
2017-Apr-18 02:01N 30°08' W 093°19'0 0.0
2017-Apr-18 01:31N 30°08' W 093°19'0 0.0
2017-Apr-18 01:00N 30°08' W 093°19'0 0.0
2017-Apr-18 00:31N 30°08' W 093°19'0 0.0
2017-Apr-18 00:00N 30°08' W 093°19'0 0.0
2017-Apr-17 23:30N 30°08' W 093°19'0 0.0
2017-Apr-17 23:01N 30°08' W 093°19'0 0.0
2017-Apr-17 22:31N 30°08' W 093°19'0 0.0
2017-Apr-17 22:01N 30°08' W 093°19'0 0.0
2017-Apr-17 21:31N 30°08' W 093°19'0 0.0
2017-Apr-17 21:01N 30°08' W 093°19'0 0.0
2017-Apr-17 20:31N 30°08' W 093°19'0 0.0
2017-Apr-17 20:01N 30°08' W 093°19'0 0.0
2017-Apr-17 19:31N 30°08' W 093°19'0 0.0
2017-Apr-17 19:01N 30°08' W 093°19'0 0.0
2017-Apr-17 18:30N 30°08' W 093°19'0 0.0
2017-Apr-17 18:01N 30°08' W 093°19'0 0.0
2017-Apr-17 17:30N 30°08' W 093°19'0 0.0
2017-Apr-17 17:00N 30°08' W 093°19'0 0.0
2017-Apr-17 16:31N 30°08' W 093°19'0 0.0
2017-Apr-17 16:01N 30°08' W 093°19'0 0.0
2017-Apr-17 15:31N 30°08' W 093°19'0 0.0
2017-Apr-17 15:01N 30°08' W 093°19'0 0.0
2017-Apr-17 14:30N 30°08' W 093°19'0 0.0
2017-Apr-17 13:31N 30°08' W 093°19'0 0.0
2017-Apr-17 13:01N 30°08' W 093°19'0 0.0
2017-Apr-17 12:30N 30°08' W 093°19'0 0.0
2017-Apr-17 12:01N 30°08' W 093°19'0 0.0
2017-Apr-17 11:31N 30°08' W 093°19'0 0.1
2017-Apr-17 11:01N 30°08' W 093°19'0 0.9
2017-Apr-17 10:31N 30°08' W 093°20'1 1.1
2017-Apr-17 10:00N 30°09' W 093°20'2 4.3
2017-Apr-17 09:31N 30°11' W 093°19'3 5.1
2017-Apr-17 09:01N 30°12' W 093°17'1 2.2
2017-Apr-17 08:31N 30°13' W 093°16'0 0.8
2017-Apr-17 08:00N 30°13' W 093°16'0 0.1
2017-Apr-17 07:31N 30°13' W 093°16'0 0.0
2017-Apr-17 07:01N 30°13' W 093°16'0 0.0
2017-Apr-17 06:31N 30°13' W 093°16'0 0.0
2017-Apr-17 06:01N 30°13' W 093°16'0 0.0
2017-Apr-17 05:31N 30°13' W 093°16'0 0.0
2017-Apr-17 05:01N 30°13' W 093°16'0 0.0
2017-Apr-17 04:31N 30°13' W 093°16'0 0.0
2017-Apr-17 04:01N 30°13' W 093°16'0 0.0
2017-Apr-17 03:31N 30°13' W 093°16'0 0.0
2017-Apr-17 03:01N 30°13' W 093°16'0 0.0
2017-Apr-17 02:31N 30°13' W 093°16'0 0.0
2017-Apr-17 02:00N 30°13' W 093°16'0 0.0
2017-Apr-17 01:31N 30°13' W 093°16'0 0.0
2017-Apr-17 01:01N 30°13' W 093°16'0 0.0
2017-Apr-17 00:30N 30°13' W 093°16'0 0.0
2017-Apr-17 00:01N 30°13' W 093°16'0 0.0
2017-Apr-16 23:30N 30°13' W 093°16'0 0.0
2017-Apr-16 23:01N 30°13' W 093°16'0 0.0
2017-Apr-16 22:31N 30°13' W 093°16'0 0.0
2017-Apr-16 22:01N 30°13' W 093°16'0 0.0
2017-Apr-16 21:31N 30°13' W 093°16'0 0.0
2017-Apr-16 21:01N 30°13' W 093°16'0 0.0
2017-Apr-16 20:30N 30°13' W 093°16'0 0.0
2017-Apr-16 20:01N 30°13' W 093°16'0 0.0
2017-Apr-16 19:30N 30°13' W 093°16'0 0.0
2017-Apr-16 19:01N 30°13' W 093°16'0 0.0
2017-Apr-16 18:31N 30°13' W 093°16'0 0.0
2017-Apr-16 18:00N 30°13' W 093°16'0 0.0
2017-Apr-16 17:31N 30°13' W 093°16'0 0.0
2017-Apr-16 17:01N 30°13' W 093°16'0 0.0
2017-Apr-16 16:31N 30°13' W 093°16'0 0.0
2017-Apr-16 16:00N 30°13' W 093°16'0 0.0
2017-Apr-16 15:31N 30°13' W 093°16'0 0.0
2017-Apr-16 15:01N 30°13' W 093°16'0 0.0
2017-Apr-16 14:31N 30°13' W 093°16'0 0.0
2017-Apr-16 13:31N 30°13' W 093°16'0 0.0
2017-Apr-16 13:01N 30°13' W 093°16'0 0.0
2017-Apr-16 12:31N 30°13' W 093°16'0 0.0
2017-Apr-16 12:01N 30°13' W 093°16'0 0.0
2017-Apr-16 11:31N 30°13' W 093°16'0 0.0
2017-Apr-16 11:01N 30°13' W 093°16'0 0.0
2017-Apr-16 10:31N 30°13' W 093°16'0 0.0
2017-Apr-16 10:00N 30°13' W 093°16'0 0.0
2017-Apr-16 09:30N 30°13' W 093°16'0 0.0
2017-Apr-16 09:00N 30°13' W 093°16'0 0.0
2017-Apr-16 08:31N 30°13' W 093°16'0 0.0
2017-Apr-16 08:00N 30°13' W 093°16'0 0.0
2017-Apr-16 07:31N 30°13' W 093°16'0 0.0
2017-Apr-16 07:01N 30°13' W 093°16'0 0.0
2017-Apr-16 06:31N 30°13' W 093°16'0 0.0
2017-Apr-16 06:01N 30°13' W 093°16'0 0.0
2017-Apr-16 05:31N 30°13' W 093°16'0 0.0
2017-Apr-16 05:00N 30°13' W 093°16'0 0.0
2017-Apr-16 04:31N 30°13' W 093°16'0 0.0
2017-Apr-16 04:01N 30°13' W 093°16'0 0.0
2017-Apr-16 03:31N 30°13' W 093°16'0 0.0
2017-Apr-16 03:01N 30°13' W 093°16'0 0.0
2017-Apr-16 02:31N 30°13' W 093°16'0 0.0
2017-Apr-16 02:01N 30°13' W 093°16'0 0.0
2017-Apr-16 01:31N 30°13' W 093°16'0 0.0
2017-Apr-16 01:01N 30°13' W 093°16'0 0.0
2017-Apr-16 00:31N 30°13' W 093°16'0 0.0
2017-Apr-16 00:01N 30°13' W 093°16'0 0.0
2017-Apr-15 23:31N 30°13' W 093°16'0 0.0
2017-Apr-15 23:01N 30°13' W 093°16'0 0.0
2017-Apr-15 22:31N 30°13' W 093°16'0 0.0
2017-Apr-15 22:00N 30°13' W 093°16'0 0.0
2017-Apr-15 21:30N 30°13' W 093°16'0 0.0
2017-Apr-15 21:01N 30°13' W 093°16'0 0.0
2017-Apr-15 20:31N 30°13' W 093°16'0 0.0
2017-Apr-15 20:01N 30°13' W 093°16'0 0.0
2017-Apr-15 19:30N 30°13' W 093°16'0 0.0
2017-Apr-15 19:01N 30°13' W 093°16'0 0.0
2017-Apr-15 18:31N 30°13' W 093°16'0 0.0
2017-Apr-15 18:01N 30°13' W 093°16'0 0.0
2017-Apr-15 17:31N 30°13' W 093°16'0 0.0
2017-Apr-15 17:00N 30°13' W 093°16'0 0.0
2017-Apr-15 16:31N 30°13' W 093°16'0 0.0
2017-Apr-15 16:01N 30°13' W 093°16'0 0.0
2017-Apr-15 15:31N 30°13' W 093°16'0 0.0
2017-Apr-15 15:01N 30°13' W 093°16'0 0.0
2017-Apr-15 14:01N 30°13' W 093°16'0 0.0
2017-Apr-15 13:31N 30°13' W 093°16'0 0.0
2017-Apr-15 13:01N 30°13' W 093°16'0 0.0
2017-Apr-15 12:30N 30°13' W 093°16'0 0.0
2017-Apr-15 12:01N 30°13' W 093°16'0 0.0
2017-Apr-15 11:31N 30°13' W 093°16'0 0.0
2017-Apr-15 11:00N 30°13' W 093°16'0 0.0
2017-Apr-15 10:31N 30°13' W 093°16'0 0.0
2017-Apr-15 10:01N 30°13' W 093°16'0 0.0
2017-Apr-15 09:30N 30°13' W 093°16'0 0.0
2017-Apr-15 09:00N 30°13' W 093°16'0 0.0
2017-Apr-15 08:30N 30°13' W 093°16'0 0.0
2017-Apr-15 08:01N 30°13' W 093°16'0 0.0
2017-Apr-15 07:31N 30°13' W 093°16'0 0.0
2017-Apr-15 07:01N 30°13' W 093°16'0 0.0
2017-Apr-15 06:31N 30°13' W 093°16'0 0.0
2017-Apr-15 06:01N 30°13' W 093°16'0 0.0
2017-Apr-15 05:31N 30°13' W 093°16'0 0.0
2017-Apr-15 05:01N 30°13' W 093°16'0 0.0
2017-Apr-15 04:30N 30°13' W 093°16'0 0.0
2017-Apr-15 04:01N 30°13' W 093°16'0 0.0
2017-Apr-15 03:31N 30°13' W 093°16'0 0.0
2017-Apr-15 03:01N 30°13' W 093°16'0 0.0
2017-Apr-15 02:31N 30°13' W 093°16'0 0.0
2017-Apr-15 02:01N 30°13' W 093°16'0 0.0
2017-Apr-15 01:30N 30°13' W 093°16'0 0.0
2017-Apr-15 01:00N 30°13' W 093°16'0 0.0
2017-Apr-15 00:31N 30°13' W 093°16'0 0.0
2017-Apr-15 00:00N 30°13' W 093°16'0 0.0
2017-Apr-14 23:31N 30°13' W 093°16'0 0.0
2017-Apr-14 23:01N 30°13' W 093°16'0 0.0
2017-Apr-14 22:31N 30°13' W 093°16'0 0.0
2017-Apr-14 22:00N 30°13' W 093°16'0 0.0
2017-Apr-14 21:30N 30°13' W 093°16'0 0.0
2017-Apr-14 21:00N 30°13' W 093°16'0 0.0
2017-Apr-14 20:31N 30°13' W 093°16'0 0.0
2017-Apr-14 20:01N 30°13' W 093°16'0 0.0
2017-Apr-14 19:31N 30°13' W 093°16'0 0.0
2017-Apr-14 19:01N 30°13' W 093°16'0 0.0
2017-Apr-14 18:31N 30°13' W 093°16'0 0.0
2017-Apr-14 18:01N 30°13' W 093°16'0 0.0
2017-Apr-14 17:31N 30°13' W 093°16'0 0.0
2017-Apr-14 17:01N 30°13' W 093°16'0 0.0
2017-Apr-14 16:30N 30°13' W 093°16'0 0.0
2017-Apr-14 16:01N 30°13' W 093°16'0 0.0
2017-Apr-14 15:31N 30°13' W 093°16'0 0.0
2017-Apr-14 15:01N 30°13' W 093°16'0 0.0
2017-Apr-14 14:31N 30°13' W 093°16'1 1.1
2017-Apr-14 13:30N 30°12' W 093°16'3 6.4
2017-Apr-14 13:01N 30°10' W 093°19'3 5.8
2017-Apr-14 12:30N 30°07' W 093°20'3 5.1
2017-Apr-14 12:01N 30°05' W 093°20'2 3.2
2017-Apr-14 11:30N 30°04' W 093°21'2 3.5
2017-Apr-14 11:01N 30°04' W 093°23'2 5.0
2017-Apr-14 10:31N 30°04' W 093°26'3 5.2
2017-Apr-14 10:01N 30°04' W 093°29'2 4.9
2017-Apr-14 09:30N 30°04' W 093°32'3 5.2
2017-Apr-14 09:01N 30°04' W 093°35'3 5.1
2017-Apr-14 08:30N 30°04' W 093°38'2 4.7
2017-Apr-14 08:01N 30°04' W 093°41'29 4.7
2017-Apr-14 01:48N 29°44' W 094°06'44 4.6
2017-Apr-13 16:10N 29°32' W 094°54'5 6.5
2017-Apr-13 15:25N 29°36' W 094°57'4 6.5
2017-Apr-13 14:49N 29°40' W 094°59'3 6.0
2017-Apr-13 14:18N 29°42' W 095°01'6 0.6
2017-Apr-13 04:41N 29°37' W 095°02'0 0.0
2017-Apr-13 01:05N 29°37' W 095°02'3 0.4
2017-Apr-12 16:35N 29°37' W 094°58'4 7.3
2017-Apr-12 16:05N 29°40' W 094°59'8 1.2
2017-Apr-12 09:13N 29°47' W 095°04'0 0.0
2017-Apr-12 09:00N 29°47' W 095°04'0 0.5
2017-Apr-12 08:26N 29°47' W 095°04'2 3.1
2017-Apr-12 07:48N 29°45' W 095°04'2 6.5
2017-Apr-12 07:26N 29°44' W 095°02'3 6.2
2017-Apr-12 07:00N 29°42' W 094°60'3 6.4
2017-Apr-12 06:30N 29°39' W 094°58'2 4.6
2017-Apr-12 06:01N 29°37' W 094°59'2 4.0
2017-Apr-12 05:31N 29°37' W 095°01'0 0.1
2017-Apr-12 05:01N 29°37' W 095°02'0 0.0
2017-Apr-12 04:30N 29°37' W 095°02'0 0.0
2017-Apr-12 04:01N 29°37' W 095°02'0 0.0
2017-Apr-12 03:31N 29°37' W 095°02'0 0.0
2017-Apr-12 03:01N 29°37' W 095°02'0 0.0
2017-Apr-12 02:31N 29°37' W 095°02'0 0.0
2017-Apr-12 02:00N 29°37' W 095°02'0 0.0
2017-Apr-12 01:30N 29°37' W 095°02'0 0.0
2017-Apr-12 01:00N 29°37' W 095°02'0 0.0
2017-Apr-12 00:30N 29°37' W 095°02'0 0.0
2017-Apr-12 00:00N 29°37' W 095°02'0 0.0
2017-Apr-11 23:30N 29°37' W 095°02'0 0.0
2017-Apr-11 23:00N 29°37' W 095°02'0 0.1
2017-Apr-11 22:30N 29°37' W 095°01'0 0.0
2017-Apr-11 22:00N 29°37' W 095°01'0 0.0
2017-Apr-11 21:30N 29°37' W 095°01'0 0.0
2017-Apr-11 21:00N 29°37' W 095°01'0 0.0
2017-Apr-11 20:30N 29°37' W 095°01'0 0.0
2017-Apr-11 20:00N 29°37' W 095°01'0 0.0
2017-Apr-11 19:30N 29°37' W 095°01'0 0.1
2017-Apr-11 19:00N 29°37' W 095°02'0 0.0
2017-Apr-11 18:30N 29°37' W 095°02'0 0.0
2017-Apr-11 18:00N 29°37' W 095°02'0 0.0
2017-Apr-11 17:30N 29°37' W 095°02'0 0.1
2017-Apr-11 17:00N 29°37' W 095°01'0 0.0
2017-Apr-11 16:30N 29°37' W 095°01'0 0.0
2017-Apr-11 16:00N 29°37' W 095°01'0 0.0
2017-Apr-11 15:30N 29°37' W 095°01'0 0.1
2017-Apr-11 15:00N 29°37' W 095°01'0 0.9
2017-Apr-11 14:30N 29°37' W 095°01'3 3.1
2017-Apr-11 13:30N 29°39' W 094°58'2 4.8
2017-Apr-11 13:00N 29°41' W 094°59'2 4.4
2017-Apr-11 12:30N 29°42' W 095°01'2 3.3
2017-Apr-11 12:00N 29°44' W 095°02'3 4.4
2017-Apr-11 11:18N 29°46' W 095°05'1 0.7
2017-Apr-11 09:35N 29°47' W 095°04'0 2.5
2017-Apr-11 09:28N 29°47' W 095°05'3 3.2
2017-Apr-11 08:31N 29°44' W 095°03'1 4.6
2017-Apr-11 08:24N 29°44' W 095°02'2 4.6
2017-Apr-11 07:58N 29°42' W 095°01'3 5.7
2017-Apr-11 07:30N 29°41' W 094°59'3 6.1
2017-Apr-11 07:00N 29°38' W 094°58'3 6.2
2017-Apr-11 06:30N 29°35' W 094°56'  
Track history (hours):
 
Tides and Currents Weather Stations Pressure Air Temp Water Temp Dewpoint Dewpoint Depression Visibility Wind Speed Wind Dir Waves Ship Positions

Integrity

Owner: Canal Barge Company, Inc., Belle Chasse, LA. More information available from US FCC via Universal Licensing System and Coast Guard Vessel Documentation Center.

Last reported at 2017-Apr-20 18:16 UTC. Time now 2017-Apr-23 05:36 UTC.
Position N 29°44' W 095°03'.

Length 19 m; draft 2.8 m.

Type: Towing. MMSI: 367456830.

Date/timePositionNaut miles runAvg speedWind from/ knotsBaromVisibWave heightAir tempDewpointWater temp
2017-Apr-20 18:16N 29°44' W 095°03'0 0.1
2017-Apr-20 17:59N 29°44' W 095°03'0 0.0
2017-Apr-20 17:28N 29°44' W 095°03'0 0.0
2017-Apr-20 16:58N 29°44' W 095°03'0 0.4
2017-Apr-20 16:31N 29°44' W 095°03'0 0.0
2017-Apr-20 16:01N 29°44' W 095°03'0 0.0
2017-Apr-20 15:29N 29°44' W 095°03'0 0.0
2017-Apr-20 14:40N 29°44' W 095°03'0 0.0
2017-Apr-20 14:28N 29°44' W 095°03'1 0.3
2017-Apr-20 10:56N 29°44' W 095°02'2 4.7
2017-Apr-20 10:30N 29°42' W 095°01'74 1.5
2017-Apr-18 07:26N 30°04' W 093°39'3 4.9
2017-Apr-18 06:51N 30°04' W 093°35'2 4.6
2017-Apr-18 06:29N 30°04' W 093°34'9 4.7
2017-Apr-18 04:29N 30°04' W 093°23'1 3.1
2017-Apr-18 04:00N 30°04' W 093°21'2 3.6
2017-Apr-18 03:31N 30°05' W 093°20'2 4.1
2017-Apr-18 03:01N 30°07' W 093°20'1 1.9
2017-Apr-18 02:31N 30°08' W 093°20'0 0.8
2017-Apr-18 02:01N 30°08' W 093°19'0 0.0
2017-Apr-18 01:31N 30°08' W 093°19'0 0.0
2017-Apr-18 01:00N 30°08' W 093°19'0 0.0
2017-Apr-18 00:31N 30°08' W 093°19'0 0.0
2017-Apr-18 00:00N 30°08' W 093°19'0 0.0
2017-Apr-17 23:30N 30°08' W 093°19'0 0.0
2017-Apr-17 23:01N 30°08' W 093°19'0 0.0
2017-Apr-17 22:31N 30°08' W 093°19'0 0.0
2017-Apr-17 22:01N 30°08' W 093°19'0 0.0
2017-Apr-17 21:31N 30°08' W 093°19'0 0.0
2017-Apr-17 21:01N 30°08' W 093°19'0 0.0
2017-Apr-17 20:31N 30°08' W 093°19'0 0.0
2017-Apr-17 20:01N 30°08' W 093°19'0 0.0
2017-Apr-17 19:31N 30°08' W 093°19'0 0.0
2017-Apr-17 19:01N 30°08' W 093°19'0 0.0
2017-Apr-17 18:30N 30°08' W 093°19'0 0.0
2017-Apr-17 18:01N 30°08' W 093°19'0 0.0
2017-Apr-17 17:30N 30°08' W 093°19'0 0.0
2017-Apr-17 17:00N 30°08' W 093°19'0 0.0
2017-Apr-17 16:31N 30°08' W 093°19'0 0.0
2017-Apr-17 16:01N 30°08' W 093°19'0 0.0
2017-Apr-17 15:31N 30°08' W 093°19'0 0.0
2017-Apr-17 15:01N 30°08' W 093°19'0 0.0
2017-Apr-17 14:30N 30°08' W 093°19'0 0.0
2017-Apr-17 13:31N 30°08' W 093°19'0 0.0
2017-Apr-17 13:01N 30°08' W 093°19'0 0.0
2017-Apr-17 12:30N 30°08' W 093°19'0 0.0
2017-Apr-17 12:01N 30°08' W 093°19'0 0.0
2017-Apr-17 11:31N 30°08' W 093°19'0 0.1
2017-Apr-17 11:01N 30°08' W 093°19'0 0.9
2017-Apr-17 10:31N 30°08' W 093°20'1 1.1
2017-Apr-17 10:00N 30°09' W 093°20'2 4.3
2017-Apr-17 09:31N 30°11' W 093°19'3 5.1
2017-Apr-17 09:01N 30°12' W 093°17'1 2.2
2017-Apr-17 08:31N 30°13' W 093°16'0 0.8
2017-Apr-17 08:00N 30°13' W 093°16'0 0.1
2017-Apr-17 07:31N 30°13' W 093°16'0 0.0
2017-Apr-17 07:01N 30°13' W 093°16'0 0.0
2017-Apr-17 06:31N 30°13' W 093°16'0 0.0
2017-Apr-17 06:01N 30°13' W 093°16'0 0.0
2017-Apr-17 05:31N 30°13' W 093°16'0 0.0
2017-Apr-17 05:01N 30°13' W 093°16'0 0.0
2017-Apr-17 04:31N 30°13' W 093°16'0 0.0
2017-Apr-17 04:01N 30°13' W 093°16'0 0.0
2017-Apr-17 03:31N 30°13' W 093°16'0 0.0
2017-Apr-17 03:01N 30°13' W 093°16'0 0.0
2017-Apr-17 02:31N 30°13' W 093°16'0 0.0
2017-Apr-17 02:00N 30°13' W 093°16'0 0.0
2017-Apr-17 01:31N 30°13' W 093°16'0 0.0
2017-Apr-17 01:01N 30°13' W 093°16'0 0.0
2017-Apr-17 00:30N 30°13' W 093°16'0 0.0
2017-Apr-17 00:01N 30°13' W 093°16'0 0.0
2017-Apr-16 23:30N 30°13' W 093°16'0 0.0
2017-Apr-16 23:01N 30°13' W 093°16'0 0.0
2017-Apr-16 22:31N 30°13' W 093°16'0 0.0
2017-Apr-16 22:01N 30°13' W 093°16'0 0.0
2017-Apr-16 21:31N 30°13' W 093°16'0 0.0
2017-Apr-16 21:01N 30°13' W 093°16'0 0.0
2017-Apr-16 20:30N 30°13' W 093°16'0 0.0
2017-Apr-16 20:01N 30°13' W 093°16'0 0.0
2017-Apr-16 19:30N 30°13' W 093°16'0 0.0
2017-Apr-16 19:01N 30°13' W 093°16'0 0.0
2017-Apr-16 18:31N 30°13' W 093°16'0 0.0
2017-Apr-16 18:00N 30°13' W 093°16'0 0.0
2017-Apr-16 17:31N 30°13' W 093°16'0 0.0
2017-Apr-16 17:01N 30°13' W 093°16'0 0.0
2017-Apr-16 16:31N 30°13' W 093°16'0 0.0
2017-Apr-16 16:00N 30°13' W 093°16'0 0.0
2017-Apr-16 15:31N 30°13' W 093°16'0 0.0
2017-Apr-16 15:01N 30°13' W 093°16'0 0.0
2017-Apr-16 14:31N 30°13' W 093°16'0 0.0
2017-Apr-16 13:31N 30°13' W 093°16'0 0.0
2017-Apr-16 13:01N 30°13' W 093°16'0 0.0
2017-Apr-16 12:31N 30°13' W 093°16'0 0.0
2017-Apr-16 12:01N 30°13' W 093°16'0 0.0
2017-Apr-16 11:31N 30°13' W 093°16'0 0.0
2017-Apr-16 11:01N 30°13' W 093°16'0 0.0
2017-Apr-16 10:31N 30°13' W 093°16'0 0.0
2017-Apr-16 10:00N 30°13' W 093°16'0 0.0
2017-Apr-16 09:30N 30°13' W 093°16'0 0.0
2017-Apr-16 09:00N 30°13' W 093°16'0 0.0
2017-Apr-16 08:31N 30°13' W 093°16'0 0.0
2017-Apr-16 08:00N 30°13' W 093°16'0 0.0
2017-Apr-16 07:31N 30°13' W 093°16'0 0.0
2017-Apr-16 07:01N 30°13' W 093°16'0 0.0
2017-Apr-16 06:31N 30°13' W 093°16'0 0.0
2017-Apr-16 06:01N 30°13' W 093°16'0 0.0
2017-Apr-16 05:31N 30°13' W 093°16'0 0.0
2017-Apr-16 05:00N 30°13' W 093°16'0 0.0
2017-Apr-16 04:31N 30°13' W 093°16'0 0.0
2017-Apr-16 04:01N 30°13' W 093°16'0 0.0
2017-Apr-16 03:31N 30°13' W 093°16'0 0.0
2017-Apr-16 03:01N 30°13' W 093°16'0 0.0
2017-Apr-16 02:31N 30°13' W 093°16'0 0.0
2017-Apr-16 02:01N 30°13' W 093°16'0 0.0
2017-Apr-16 01:31N 30°13' W 093°16'0 0.0
2017-Apr-16 01:01N 30°13' W 093°16'0 0.0
2017-Apr-16 00:31N 30°13' W 093°16'0 0.0
2017-Apr-16 00:01N 30°13' W 093°16'0 0.0
2017-Apr-15 23:31N 30°13' W 093°16'0 0.0
2017-Apr-15 23:01N 30°13' W 093°16'0 0.0
2017-Apr-15 22:31N 30°13' W 093°16'0 0.0
2017-Apr-15 22:00N 30°13' W 093°16'0 0.0
2017-Apr-15 21:30N 30°13' W 093°16'0 0.0
2017-Apr-15 21:01N 30°13' W 093°16'0 0.0
2017-Apr-15 20:31N 30°13' W 093°16'0 0.0
2017-Apr-15 20:01N 30°13' W 093°16'0 0.0
2017-Apr-15 19:30N 30°13' W 093°16'0 0.0
2017-Apr-15 19:01N 30°13' W 093°16'0 0.0
2017-Apr-15 18:31N 30°13' W 093°16'0 0.0
2017-Apr-15 18:01N 30°13' W 093°16'0 0.0
2017-Apr-15 17:31N 30°13' W 093°16'0 0.0
2017-Apr-15 17:00N 30°13' W 093°16'0 0.0
2017-Apr-15 16:31N 30°13' W 093°16'0 0.0
2017-Apr-15 16:01N 30°13' W 093°16'0 0.0
2017-Apr-15 15:31N 30°13' W 093°16'0 0.0
2017-Apr-15 15:01N 30°13' W 093°16'0 0.0
2017-Apr-15 14:01N 30°13' W 093°16'0 0.0
2017-Apr-15 13:31N 30°13' W 093°16'0 0.0
2017-Apr-15 13:01N 30°13' W 093°16'0 0.0
2017-Apr-15 12:30N 30°13' W 093°16'0 0.0
2017-Apr-15 12:01N 30°13' W 093°16'0 0.0
2017-Apr-15 11:31N 30°13' W 093°16'0 0.0
2017-Apr-15 11:00N 30°13' W 093°16'0 0.0
2017-Apr-15 10:31N 30°13' W 093°16'0 0.0
2017-Apr-15 10:01N 30°13' W 093°16'0 0.0
2017-Apr-15 09:30N 30°13' W 093°16'0 0.0
2017-Apr-15 09:00N 30°13' W 093°16'0 0.0
2017-Apr-15 08:30N 30°13' W 093°16'0 0.0
2017-Apr-15 08:01N 30°13' W 093°16'0 0.0
2017-Apr-15 07:31N 30°13' W 093°16'0 0.0
2017-Apr-15 07:01N 30°13' W 093°16'0 0.0
2017-Apr-15 06:31N 30°13' W 093°16'0 0.0
2017-Apr-15 06:01N 30°13' W 093°16'0 0.0
2017-Apr-15 05:31N 30°13' W 093°16'0 0.0
2017-Apr-15 05:01N 30°13' W 093°16'0 0.0
2017-Apr-15 04:30N 30°13' W 093°16'0 0.0
2017-Apr-15 04:01N 30°13' W 093°16'0 0.0
2017-Apr-15 03:31N 30°13' W 093°16'0 0.0
2017-Apr-15 03:01N 30°13' W 093°16'0 0.0
2017-Apr-15 02:31N 30°13' W 093°16'0 0.0
2017-Apr-15 02:01N 30°13' W 093°16'0 0.0
2017-Apr-15 01:30N 30°13' W 093°16'0 0.0
2017-Apr-15 01:00N 30°13' W 093°16'0 0.0
2017-Apr-15 00:31N 30°13' W 093°16'0 0.0
2017-Apr-15 00:00N 30°13' W 093°16'0 0.0
2017-Apr-14 23:31N 30°13' W 093°16'0 0.0
2017-Apr-14 23:01N 30°13' W 093°16'0 0.0
2017-Apr-14 22:31N 30°13' W 093°16'0 0.0
2017-Apr-14 22:00N 30°13' W 093°16'0 0.0
2017-Apr-14 21:30N 30°13' W 093°16'0 0.0
2017-Apr-14 21:00N 30°13' W 093°16'0 0.0
2017-Apr-14 20:31N 30°13' W 093°16'0 0.0
2017-Apr-14 20:01N 30°13' W 093°16'0 0.0
2017-Apr-14 19:31N 30°13' W 093°16'0 0.0
2017-Apr-14 19:01N 30°13' W 093°16'0 0.0
2017-Apr-14 18:31N 30°13' W 093°16'0 0.0
2017-Apr-14 18:01N 30°13' W 093°16'0 0.0
2017-Apr-14 17:31N 30°13' W 093°16'0 0.0
2017-Apr-14 17:01N 30°13' W 093°16'0 0.0
2017-Apr-14 16:30N 30°13' W 093°16'0 0.0
2017-Apr-14 16:01N 30°13' W 093°16'0 0.0
2017-Apr-14 15:31N 30°13' W 093°16'0 0.0
2017-Apr-14 15:01N 30°13' W 093°16'0 0.0
2017-Apr-14 14:31N 30°13' W 093°16'1 1.1
2017-Apr-14 13:30N 30°12' W 093°16'3 6.4
2017-Apr-14 13:01N 30°10' W 093°19'3 5.8
2017-Apr-14 12:30N 30°07' W 093°20'3 5.1
2017-Apr-14 12:01N 30°05' W 093°20'2 3.2
2017-Apr-14 11:30N 30°04' W 093°21'2 3.5
2017-Apr-14 11:01N 30°04' W 093°23'2 5.0
2017-Apr-14 10:31N 30°04' W 093°26'3 5.2
2017-Apr-14 10:01N 30°04' W 093°29'2 4.9
2017-Apr-14 09:30N 30°04' W 093°32'3 5.2
2017-Apr-14 09:01N 30°04' W 093°35'3 5.1
2017-Apr-14 08:30N 30°04' W 093°38'2 4.7
2017-Apr-14 08:01N 30°04' W 093°41'29 4.7
2017-Apr-14 01:48N 29°44' W 094°06'44 4.6
2017-Apr-13 16:10N 29°32' W 094°54'5 6.5
2017-Apr-13 15:25N 29°36' W 094°57'4 6.5
2017-Apr-13 14:49N 29°40' W 094°59'3 6.0
2017-Apr-13 14:18N 29°42' W 095°01'6 0.6
2017-Apr-13 04:41N 29°37' W 095°02'0 0.0
2017-Apr-13 01:05N 29°37' W 095°02'3 0.4
2017-Apr-12 16:35N 29°37' W 094°58'4 7.3
2017-Apr-12 16:05N 29°40' W 094°59'8 1.2
2017-Apr-12 09:13N 29°47' W 095°04'0 0.0
2017-Apr-12 09:00N 29°47' W 095°04'0 0.5
2017-Apr-12 08:26N 29°47' W 095°04'2 3.1
2017-Apr-12 07:48N 29°45' W 095°04'2 6.5
2017-Apr-12 07:26N 29°44' W 095°02'3 6.2
2017-Apr-12 07:00N 29°42' W 094°60'3 6.4
2017-Apr-12 06:30N 29°39' W 094°58'2 4.6
2017-Apr-12 06:01N 29°37' W 094°59'2 4.0
2017-Apr-12 05:31N 29°37' W 095°01'0 0.1
2017-Apr-12 05:01N 29°37' W 095°02'0 0.0
2017-Apr-12 04:30N 29°37' W 095°02'0 0.0
2017-Apr-12 04:01N 29°37' W 095°02'0 0.0
2017-Apr-12 03:31N 29°37' W 095°02'0 0.0
2017-Apr-12 03:01N 29°37' W 095°02'0 0.0
2017-Apr-12 02:31N 29°37' W 095°02'0 0.0
2017-Apr-12 02:00N 29°37' W 095°02'0 0.0
2017-Apr-12 01:30N 29°37' W 095°02'0 0.0
2017-Apr-12 01:00N 29°37' W 095°02'0 0.0
2017-Apr-12 00:30N 29°37' W 095°02'0 0.0
2017-Apr-12 00:00N 29°37' W 095°02'0 0.0
2017-Apr-11 23:30N 29°37' W 095°02'0 0.0
2017-Apr-11 23:00N 29°37' W 095°02'0 0.1
2017-Apr-11 22:30N 29°37' W 095°01'0 0.0
2017-Apr-11 22:00N 29°37' W 095°01'0 0.0
2017-Apr-11 21:30N 29°37' W 095°01'0 0.0
2017-Apr-11 21:00N 29°37' W 095°01'0 0.0
2017-Apr-11 20:30N 29°37' W 095°01'0 0.0
2017-Apr-11 20:00N 29°37' W 095°01'0 0.0
2017-Apr-11 19:30N 29°37' W 095°01'0 0.1
2017-Apr-11 19:00N 29°37' W 095°02'0 0.0
2017-Apr-11 18:30N 29°37' W 095°02'0 0.0
2017-Apr-11 18:00N 29°37' W 095°02'0 0.0
2017-Apr-11 17:30N 29°37' W 095°02'0 0.1
2017-Apr-11 17:00N 29°37' W 095°01'0 0.0
2017-Apr-11 16:30N 29°37' W 095°01'0 0.0
2017-Apr-11 16:00N 29°37' W 095°01'0 0.0
2017-Apr-11 15:30N 29°37' W 095°01'0 0.1
2017-Apr-11 15:00N 29°37' W 095°01'0 0.9
2017-Apr-11 14:30N 29°37' W 095°01'3 3.1
2017-Apr-11 13:30N 29°39' W 094°58'2 4.8
2017-Apr-11 13:00N 29°41' W 094°59'2 4.4
2017-Apr-11 12:30N 29°42' W 095°01'2 3.3
2017-Apr-11 12:00N 29°44' W 095°02'3 4.4
2017-Apr-11 11:18N 29°46' W 095°05'1 0.7
2017-Apr-11 09:35N 29°47' W 095°04'0 2.5
2017-Apr-11 09:28N 29°47' W 095°05'3 3.2
2017-Apr-11 08:31N 29°44' W 095°03'1 4.6
2017-Apr-11 08:24N 29°44' W 095°02'2 4.6
2017-Apr-11 07:58N 29°42' W 095°01'3 5.7
2017-Apr-11 07:30N 29°41' W 094°59'3 6.1
2017-Apr-11 07:00N 29°38' W 094°58'3 6.2
2017-Apr-11 06:30N 29°35' W 094°56'  

Dump ship's entire track history